createdAt,value
2023-05-25T00:01:34.407Z,11.00
2023-05-25T00:04:03.039Z,11.10
2023-05-25T00:06:31.036Z,11.00
2023-05-25T00:08:59.182Z,11.00
2023-05-25T00:11:27.621Z,11.00
2023-05-25T00:13:56.885Z,11.00
2023-05-25T00:16:24.860Z,11.00
2023-05-25T00:18:53.184Z,11.00
2023-05-25T00:21:21.226Z,11.00
2023-05-25T00:23:49.108Z,10.90
2023-05-25T00:26:16.988Z,10.90
2023-05-25T00:28:44.839Z,10.90
2023-05-25T00:31:14.147Z,10.90
2023-05-25T00:33:42.167Z,10.90
2023-05-25T00:36:10.159Z,10.90
2023-05-25T00:38:38.097Z,10.90
2023-05-25T00:41:06.187Z,10.90
2023-05-25T00:43:34.112Z,10.80
2023-05-25T00:46:02.405Z,10.80
2023-05-25T00:48:31.732Z,10.80
2023-05-25T00:51:00.059Z,10.80
2023-05-25T00:53:28.095Z,10.80
2023-05-25T00:55:58.538Z,10.70
2023-05-25T00:58:28.382Z,10.70
2023-05-25T01:00:58.056Z,10.70
2023-05-25T01:03:27.822Z,10.70
2023-05-25T01:05:58.505Z,10.60
2023-05-25T01:08:27.204Z,10.60
2023-05-25T01:10:56.466Z,10.60
2023-05-25T01:13:24.721Z,10.50
2023-05-25T01:15:53.742Z,10.50
2023-05-25T01:18:22.061Z,10.50
2023-05-25T01:20:57.202Z,10.50
2023-05-25T01:23:32.797Z,10.50
2023-05-25T01:26:02.796Z,10.50
2023-05-25T01:28:31.765Z,10.50
2023-05-25T01:31:00.057Z,10.50
2023-05-25T01:33:28.727Z,10.40
2023-05-25T01:35:57.982Z,10.40
2023-05-25T01:38:26.246Z,10.40
2023-05-25T01:40:54.289Z,10.40
2023-05-25T01:43:22.203Z,10.30
2023-05-25T01:45:50.228Z,10.30
2023-05-25T01:48:22.230Z,10.20
2023-05-25T01:50:52.406Z,10.20
2023-05-25T01:53:23.801Z,10.20
2023-05-25T01:55:54.745Z,10.10
2023-05-25T01:58:23.259Z,10.10
2023-05-25T02:00:52.002Z,10.00
2023-05-25T02:03:20.902Z,9.90
2023-05-25T02:05:48.939Z,9.80
2023-05-25T02:08:16.873Z,9.70
2023-05-25T02:10:46.175Z,9.60
2023-05-25T02:13:14.083Z,9.50
2023-05-25T02:15:42.368Z,9.40
2023-05-25T02:18:11.027Z,9.30
2023-05-25T02:20:38.981Z,9.20
2023-05-25T02:23:07.096Z,9.10
2023-05-25T02:25:35.034Z,9.10
2023-05-25T02:28:04.993Z,9.00
2023-05-25T02:30:32.912Z,8.90
2023-05-25T02:33:02.368Z,8.90
2023-05-25T02:35:30.293Z,8.80
2023-05-25T02:37:58.191Z,8.70
2023-05-25T02:40:26.090Z,8.70
2023-05-25T02:42:53.987Z,8.70
2023-05-25T02:45:23.229Z,8.60
2023-05-25T02:47:51.193Z,8.60
2023-05-25T02:50:19.465Z,8.50
2023-05-25T02:52:47.444Z,8.40
2023-05-25T02:55:15.485Z,8.40
2023-05-25T02:57:43.404Z,8.30
2023-05-25T03:00:12.761Z,8.30
2023-05-25T03:02:42.114Z,8.20
2023-05-25T03:05:10.073Z,8.20
2023-05-25T03:07:38.016Z,8.10
2023-05-25T03:10:06.307Z,8.10
2023-05-25T03:12:34.194Z,8.00
2023-05-25T03:15:02.062Z,8.00
2023-05-25T03:17:30.102Z,7.90
2023-05-25T03:19:59.462Z,7.90
2023-05-25T03:22:27.376Z,7.90
2023-05-25T03:24:55.269Z,7.90
2023-05-25T03:27:23.168Z,7.90
2023-05-25T03:29:51.254Z,7.90
2023-05-25T03:32:19.165Z,7.90
2023-05-25T03:34:47.116Z,8.00
2023-05-25T03:37:16.342Z,8.00
2023-05-25T03:39:44.302Z,8.00
2023-05-25T03:42:12.235Z,8.00
2023-05-25T03:44:41.225Z,8.00
2023-05-25T03:47:09.268Z,8.00
2023-05-25T03:49:37.192Z,8.00
2023-05-25T03:52:06.185Z,8.00
2023-05-25T03:54:35.611Z,8.00
2023-05-25T03:57:03.985Z,8.00
2023-05-25T03:59:32.241Z,8.10
2023-05-25T04:02:00.149Z,8.10
2023-05-25T04:04:29.924Z,8.20
2023-05-25T04:06:57.880Z,8.20
2023-05-25T04:09:25.780Z,8.40
2023-05-25T04:11:55.016Z,8.50
2023-05-25T04:14:22.861Z,8.50
2023-05-25T04:16:50.936Z,8.60
2023-05-25T04:19:19.143Z,8.70
2023-05-25T04:21:47.025Z,8.80
2023-05-25T04:24:14.930Z,8.90
2023-05-25T04:26:43.691Z,9.00
2023-05-25T04:29:13.691Z,9.00
2023-05-25T04:31:43.361Z,9.10
2023-05-25T04:34:11.365Z,9.20
2023-05-25T04:36:43.178Z,9.30
2023-05-25T04:39:11.089Z,9.30
2023-05-25T04:41:39.329Z,9.40
2023-05-25T04:44:10.226Z,9.50
2023-05-25T04:46:40.741Z,9.60
2023-05-25T04:49:09.933Z,9.60
2023-05-25T04:51:38.113Z,9.70
2023-05-25T04:54:06.247Z,9.80
2023-05-25T04:56:34.133Z,9.80
2023-05-25T04:59:02.013Z,9.90
2023-05-25T05:01:30.124Z,10.00
2023-05-25T05:03:59.768Z,10.10
2023-05-25T05:06:27.756Z,10.20
2023-05-25T05:08:55.940Z,10.30
2023-05-25T05:11:23.859Z,10.30
2023-05-25T05:13:51.808Z,10.40
2023-05-25T05:16:19.742Z,10.50
2023-05-25T05:18:47.687Z,10.60
2023-05-25T05:21:17.143Z,10.70
2023-05-25T05:23:45.153Z,10.90
2023-05-25T05:26:15.177Z,11.10
2023-05-25T05:28:43.267Z,11.30
2023-05-25T05:31:12.245Z,11.50
2023-05-25T05:33:40.658Z,11.60
2023-05-25T05:36:09.366Z,11.70
2023-05-25T05:38:40.315Z,11.80
2023-05-25T05:41:13.416Z,11.90
2023-05-25T05:43:42.374Z,12.00
2023-05-25T05:46:10.721Z,12.10
2023-05-25T05:48:38.710Z,12.10
2023-05-25T05:51:06.951Z,12.20
2023-05-25T05:53:35.482Z,12.30
2023-05-25T05:56:04.766Z,12.40
2023-05-25T05:58:33.306Z,12.50
2023-05-25T06:01:02.040Z,12.60
2023-05-25T06:03:30.028Z,12.70
2023-05-25T06:05:58.053Z,12.80
2023-05-25T06:08:26.288Z,12.90
2023-05-25T06:10:54.191Z,13.00
2023-05-25T06:13:23.470Z,13.10
2023-05-25T06:15:51.381Z,13.30
2023-05-25T06:18:19.264Z,13.50
2023-05-25T06:20:47.214Z,13.50
2023-05-25T06:23:15.263Z,13.60
2023-05-25T06:25:43.349Z,13.70
2023-05-25T06:28:11.696Z,13.80
2023-05-25T06:30:41.058Z,14.00
2023-05-25T06:33:09.613Z,14.20
2023-05-25T06:35:37.699Z,14.30
2023-05-25T06:38:06.253Z,14.40
2023-05-25T06:40:34.262Z,14.60
2023-05-25T06:43:02.158Z,14.70
2023-05-25T06:45:30.172Z,14.80
2023-05-25T06:47:59.432Z,14.90
2023-05-25T06:50:27.466Z,15.10
2023-05-25T06:52:55.360Z,15.30
2023-05-25T06:55:23.241Z,15.40
2023-05-25T06:57:51.245Z,15.60
2023-05-25T07:00:19.756Z,15.80
2023-05-25T07:02:47.715Z,15.90
2023-05-25T07:05:17.186Z,16.00
2023-05-25T07:07:45.130Z,16.20
2023-05-25T07:10:12.990Z,16.40
2023-05-25T07:12:40.953Z,16.40
2023-05-25T07:15:09.529Z,16.50
2023-05-25T07:17:37.679Z,16.50
2023-05-25T07:20:06.079Z,16.60
2023-05-25T07:22:35.810Z,16.60
2023-05-25T07:25:03.901Z,16.40
2023-05-25T07:27:33.806Z,16.20
2023-05-25T07:30:01.745Z,16.00
2023-05-25T07:32:29.698Z,15.80
2023-05-25T07:34:57.630Z,15.70
2023-05-25T07:37:25.552Z,15.80
2023-05-25T07:39:54.996Z,16.00
2023-05-25T07:42:22.860Z,16.10
2023-05-25T07:44:50.840Z,16.30
2023-05-25T07:47:18.789Z,16.30
2023-05-25T07:49:46.738Z,16.30
2023-05-25T07:52:14.672Z,16.30
2023-05-25T07:54:42.605Z,16.50
2023-05-25T07:57:11.924Z,16.60
2023-05-25T07:59:39.991Z,17.10
2023-05-25T08:02:07.975Z,17.20
2023-05-25T08:04:37.495Z,17.20
2023-05-25T08:07:05.729Z,17.30
2023-05-25T08:09:33.558Z,17.40
2023-05-25T08:12:23.828Z,17.60
2023-05-25T08:14:51.789Z,17.70
2023-05-25T08:17:19.842Z,17.80
2023-05-25T08:19:47.857Z,18.00
2023-05-25T08:22:15.790Z,18.10
2023-05-25T08:24:43.755Z,18.10
2023-05-25T08:27:11.676Z,17.90
2023-05-25T08:29:39.718Z,18.10
2023-05-25T08:32:09.091Z,18.30
2023-05-25T08:34:36.989Z,18.10
2023-05-25T08:37:05.035Z,18.10
2023-05-25T08:39:34.781Z,18.10
2023-05-25T08:42:03.810Z,18.20
2023-05-25T08:44:32.233Z,18.40
2023-05-25T08:47:05.199Z,18.40
2023-05-25T08:49:35.794Z,18.80
2023-05-25T08:52:03.795Z,19.30
2023-05-25T08:54:35.431Z,19.60
2023-05-25T08:57:07.083Z,20.00
2023-05-25T08:59:38.278Z,20.40
2023-05-25T09:02:12.947Z,20.60
2023-05-25T09:04:42.522Z,21.00
2023-05-25T09:07:11.273Z,21.30
2023-05-25T09:09:39.721Z,21.40
2023-05-25T09:12:08.559Z,21.70
2023-05-25T09:14:37.636Z,21.90
2023-05-25T09:17:05.947Z,22.00
2023-05-25T09:19:33.944Z,22.30
2023-05-25T09:22:15.082Z,22.20
2023-05-25T09:24:44.569Z,22.20
2023-05-25T09:27:13.384Z,22.40
2023-05-25T09:29:41.331Z,22.60
2023-05-25T09:32:09.500Z,22.70
2023-05-25T09:34:37.462Z,22.80
2023-05-25T09:37:11.890Z,23.00
2023-05-25T09:39:41.088Z,23.40
2023-05-25T09:42:09.099Z,23.50
2023-05-25T09:44:37.179Z,23.70
2023-05-25T09:47:05.522Z,23.90
2023-05-25T09:49:33.786Z,24.00
2023-05-25T09:52:01.836Z,24.10
2023-05-25T09:54:31.248Z,24.40
2023-05-25T09:57:01.506Z,24.50
2023-05-25T09:59:29.408Z,24.40
2023-05-25T10:01:57.745Z,24.60
2023-05-25T10:04:25.810Z,24.70
2023-05-25T10:06:56.741Z,24.90
2023-05-25T10:09:25.999Z,25.20
2023-05-25T10:11:55.984Z,25.30
2023-05-25T10:14:27.956Z,25.30
2023-05-25T10:16:58.960Z,25.40
2023-05-25T10:19:29.640Z,25.80
2023-05-25T10:21:59.732Z,26.20
2023-05-25T10:24:32.064Z,26.20
2023-05-25T10:27:14.569Z,26.10
2023-05-25T10:29:52.319Z,26.40
2023-05-25T10:32:20.388Z,26.60
2023-05-25T10:34:49.655Z,26.80
2023-05-25T10:37:18.188Z,26.90
2023-05-25T10:39:47.136Z,27.00
2023-05-25T10:42:17.577Z,27.00
2023-05-25T10:44:46.064Z,27.20
2023-05-25T10:47:14.476Z,27.40
2023-05-25T10:49:52.570Z,27.30
2023-05-25T10:52:20.865Z,27.50
2023-05-25T10:54:48.988Z,27.50
2023-05-25T10:57:21.525Z,27.50
2023-05-25T10:59:50.631Z,27.20
2023-05-25T11:02:23.069Z,27.30
2023-05-25T11:04:51.408Z,27.40
2023-05-25T11:07:19.534Z,27.50
2023-05-25T11:09:57.740Z,27.40
2023-05-25T11:12:27.726Z,27.60
2023-05-25T11:15:10.656Z,27.60
2023-05-25T11:18:02.613Z,27.60
2023-05-25T11:20:31.246Z,27.60
2023-05-25T11:22:59.994Z,27.80
2023-05-25T11:25:38.341Z,28.10
2023-05-25T11:28:08.815Z,28.40
2023-05-25T11:30:36.914Z,28.50
2023-05-25T11:33:07.749Z,28.80
2023-05-25T11:35:38.288Z,28.90
2023-05-25T11:38:07.380Z,29.00
2023-05-25T11:40:37.521Z,28.80
2023-05-25T11:43:09.376Z,28.90
2023-05-25T11:45:38.463Z,29.30
2023-05-25T11:48:06.739Z,29.50
2023-05-25T11:50:34.735Z,29.70
2023-05-25T11:53:06.083Z,29.90
2023-05-25T11:55:34.042Z,30.20
2023-05-25T11:58:02.017Z,30.50
2023-05-25T12:00:31.507Z,30.80
2023-05-25T12:02:59.602Z,30.20
2023-05-25T12:05:27.728Z,29.00
2023-05-25T12:07:55.718Z,29.10
2023-05-25T12:10:23.600Z,29.40
2023-05-25T12:12:52.514Z,29.90
2023-05-25T12:15:22.252Z,30.10
2023-05-25T12:17:51.959Z,30.10
2023-05-25T12:20:20.433Z,29.10
2023-05-25T12:22:48.811Z,28.60
2023-05-25T12:25:20.225Z,28.20
2023-05-25T12:27:48.338Z,28.60
2023-05-25T12:30:16.526Z,29.30
2023-05-25T12:32:55.778Z,29.70
2023-05-25T12:35:23.734Z,30.00
2023-05-25T12:37:51.700Z,30.30
2023-05-25T12:40:20.504Z,30.60
2023-05-25T12:42:56.780Z,30.90
2023-05-25T12:45:24.780Z,31.00
2023-05-25T12:47:52.705Z,31.30
2023-05-25T12:50:22.113Z,31.40
2023-05-25T12:52:50.198Z,31.50
2023-05-25T12:55:22.410Z,31.60
2023-05-25T12:57:52.780Z,31.70
2023-05-25T13:00:21.969Z,31.80
2023-05-25T13:02:50.617Z,31.90
2023-05-25T13:05:24.170Z,31.90
2023-05-25T13:07:52.641Z,32.00
2023-05-25T13:10:20.645Z,32.10
2023-05-25T13:12:48.830Z,32.20
2023-05-25T13:15:17.768Z,31.60
2023-05-25T13:17:46.176Z,31.40
2023-05-25T13:20:15.204Z,31.60
2023-05-25T13:22:45.359Z,31.70
2023-05-25T13:25:13.709Z,31.90
2023-05-25T13:27:44.261Z,31.90
2023-05-25T13:30:12.840Z,31.80
2023-05-25T13:32:42.002Z,32.00
2023-05-25T13:35:12.861Z,31.90
2023-05-25T13:37:41.417Z,32.10
2023-05-25T13:40:11.733Z,32.10
2023-05-25T13:42:39.635Z,32.30
2023-05-25T13:45:08.086Z,32.40
2023-05-25T13:47:36.082Z,32.50
2023-05-25T13:50:04.607Z,32.50
2023-05-25T13:52:33.101Z,32.70
2023-05-25T13:55:01.029Z,32.30
2023-05-25T13:57:30.323Z,32.20
2023-05-25T13:59:58.208Z,32.10
2023-05-25T14:02:26.229Z,31.80
2023-05-25T14:04:54.231Z,31.90
2023-05-25T14:07:22.539Z,31.70
2023-05-25T14:09:50.468Z,31.70
2023-05-25T14:12:18.344Z,31.80
2023-05-25T14:14:47.590Z,31.90
2023-05-25T14:17:15.527Z,32.00
2023-05-25T14:19:43.504Z,31.70
2023-05-25T14:22:14.212Z,31.60
2023-05-25T14:24:42.653Z,31.60
2023-05-25T14:27:10.727Z,31.40
2023-05-25T14:29:38.800Z,31.30
2023-05-25T14:32:08.179Z,31.20
2023-05-25T14:34:36.041Z,31.00
2023-05-25T14:37:03.949Z,30.90
2023-05-25T14:39:31.852Z,30.90
2023-05-25T14:42:00.021Z,30.90
2023-05-25T14:44:27.991Z,30.90
2023-05-25T14:46:56.032Z,30.80
2023-05-25T14:49:27.291Z,30.50
2023-05-25T14:51:55.398Z,30.30
2023-05-25T14:54:23.347Z,30.20
2023-05-25T14:56:51.249Z,30.20
2023-05-25T14:59:19.172Z,30.10
2023-05-25T15:01:47.573Z,29.90
2023-05-25T15:04:15.635Z,29.90
2023-05-25T15:06:44.880Z,29.80
2023-05-25T15:09:13.330Z,29.70
2023-05-25T15:11:41.288Z,29.50
2023-05-25T15:14:09.187Z,29.40
2023-05-25T15:16:37.142Z,29.30
2023-05-25T15:19:05.079Z,29.30
2023-05-25T15:21:32.980Z,29.30
2023-05-25T15:24:02.263Z,29.30
2023-05-25T15:26:30.189Z,29.40
2023-05-25T15:28:58.132Z,29.50
2023-05-25T15:31:26.100Z,29.40
2023-05-25T15:33:58.487Z,29.30
2023-05-25T15:36:27.095Z,29.30
2023-05-25T15:38:55.016Z,29.20
2023-05-25T15:41:24.356Z,29.10
2023-05-25T15:43:54.613Z,29.00
2023-05-25T15:46:22.726Z,28.90
2023-05-25T15:48:50.886Z,28.80
2023-05-25T15:51:18.776Z,28.70
2023-05-25T15:53:47.171Z,28.70
2023-05-25T15:56:15.077Z,28.80
2023-05-25T15:58:48.732Z,29.00
2023-05-25T16:01:16.920Z,29.10
2023-05-25T16:03:44.984Z,29.10
2023-05-25T16:06:13.049Z,29.10
2023-05-25T16:08:40.919Z,28.90
2023-05-25T16:11:08.905Z,28.60
2023-05-25T16:13:36.763Z,28.30
2023-05-25T16:16:06.392Z,27.60
2023-05-25T16:18:34.345Z,27.20
2023-05-25T16:21:02.352Z,26.70
2023-05-25T16:23:30.402Z,26.20
2023-05-25T16:25:58.266Z,25.80
2023-05-25T16:28:26.232Z,25.50
2023-05-25T16:30:54.145Z,25.30
2023-05-25T16:33:23.403Z,24.90
2023-05-25T16:35:53.691Z,24.70
2023-05-25T16:38:21.636Z,24.40
2023-05-25T16:40:49.588Z,24.20
2023-05-25T16:43:17.607Z,24.00
2023-05-25T16:45:45.774Z,23.90
2023-05-25T16:48:13.863Z,23.70
2023-05-25T16:50:43.150Z,23.50
2023-05-25T16:53:11.098Z,23.30
2023-05-25T16:55:39.015Z,23.20
2023-05-25T16:58:06.921Z,23.00
2023-05-25T17:00:34.941Z,22.90
2023-05-25T17:03:02.943Z,22.70
2023-05-25T17:05:30.903Z,22.60
2023-05-25T17:08:00.316Z,22.50
2023-05-25T17:10:28.216Z,22.30
2023-05-25T17:12:56.078Z,22.10
2023-05-25T17:15:23.980Z,22.00
2023-05-25T17:17:51.944Z,21.80
2023-05-25T17:20:19.957Z,21.70
2023-05-25T17:22:48.871Z,21.60
2023-05-25T17:25:18.113Z,21.50
2023-05-25T17:27:46.088Z,21.40
2023-05-25T17:30:14.286Z,21.20
2023-05-25T17:32:42.256Z,21.10
2023-05-25T17:35:10.452Z,21.00
2023-05-25T17:37:38.363Z,20.80
2023-05-25T17:40:06.856Z,20.70
2023-05-25T17:42:36.097Z,20.60
2023-05-25T17:45:04.140Z,20.40
2023-05-25T17:47:32.043Z,20.30
2023-05-25T17:49:59.964Z,20.30
2023-05-25T17:52:29.370Z,20.20
2023-05-25T17:54:57.258Z,20.00
2023-05-25T17:57:25.781Z,19.90
2023-05-25T17:59:55.113Z,19.80
2023-05-25T18:02:24.005Z,19.70
2023-05-25T18:04:52.005Z,19.60
2023-05-25T18:07:20.970Z,19.40
2023-05-25T18:09:48.941Z,19.30
2023-05-25T18:12:16.918Z,19.20
2023-05-25T18:14:44.947Z,19.10
2023-05-25T18:17:14.434Z,19.00
2023-05-25T18:19:42.499Z,18.90
2023-05-25T18:22:10.409Z,18.80
2023-05-25T18:24:38.388Z,18.60
2023-05-25T18:27:06.422Z,18.50
2023-05-25T18:29:34.321Z,18.40
2023-05-25T18:32:02.204Z,18.30
2023-05-25T18:34:31.428Z,18.10
2023-05-25T18:36:59.312Z,18.10
2023-05-25T18:39:27.324Z,17.90
2023-05-25T18:41:55.234Z,17.80
2023-05-25T18:44:23.095Z,17.70
2023-05-25T18:46:52.437Z,17.60
2023-05-25T18:49:20.433Z,17.50
2023-05-25T18:51:49.690Z,17.40
2023-05-25T18:54:17.586Z,17.20
2023-05-25T18:56:47.453Z,17.10
2023-05-25T18:59:15.461Z,17.00
2023-05-25T19:01:43.472Z,16.90
2023-05-25T19:04:11.501Z,16.90
2023-05-25T19:06:39.532Z,16.80
2023-05-25T19:09:08.785Z,16.60
2023-05-25T19:11:36.726Z,16.50
2023-05-25T19:14:04.678Z,16.40
2023-05-25T19:16:32.603Z,16.30
2023-05-25T19:19:00.616Z,16.20
2023-05-25T19:21:28.509Z,16.10
2023-05-25T19:23:57.949Z,16.10
2023-05-25T19:26:27.520Z,15.90
2023-05-25T19:28:55.415Z,15.90
2023-05-25T19:31:23.674Z,15.70
2023-05-25T19:33:51.619Z,15.60
2023-05-25T19:36:19.538Z,15.50
2023-05-25T19:38:47.480Z,15.40
2023-05-25T19:41:16.052Z,15.30
2023-05-25T19:43:45.306Z,15.20
2023-05-25T19:46:13.312Z,15.10
2023-05-25T19:48:41.531Z,15.00
2023-05-25T19:51:09.449Z,14.90
2023-05-25T19:53:37.339Z,14.80
2023-05-25T19:56:05.365Z,14.80
2023-05-25T19:58:33.226Z,14.70
2023-05-25T20:01:02.519Z,14.70
2023-05-25T20:03:30.563Z,14.60
2023-05-25T20:05:59.860Z,14.50
2023-05-25T20:08:28.085Z,14.40
2023-05-25T20:10:56.081Z,14.40
2023-05-25T20:13:24.017Z,14.30
2023-05-25T20:15:51.933Z,14.20
2023-05-25T20:18:23.662Z,14.00
2023-05-25T20:20:51.708Z,14.00
2023-05-25T20:23:19.932Z,13.90
2023-05-25T20:25:47.935Z,13.80
2023-05-25T20:28:15.989Z,13.80
2023-05-25T20:30:43.854Z,13.80
2023-05-25T20:33:11.743Z,13.70
2023-05-25T20:35:41.062Z,13.60
2023-05-25T20:38:09.000Z,13.60
2023-05-25T20:40:36.870Z,13.50
2023-05-25T20:43:04.752Z,13.40
2023-05-25T20:45:32.641Z,13.40
2023-05-25T20:48:01.435Z,13.30
2023-05-25T20:50:29.752Z,13.20
2023-05-25T20:52:59.030Z,13.20
2023-05-25T20:55:27.062Z,13.10
2023-05-25T20:57:56.593Z,13.00
2023-05-25T21:00:24.690Z,12.90
2023-05-25T21:02:52.683Z,12.80
2023-05-25T21:05:20.603Z,12.80
2023-05-25T21:07:48.535Z,12.70
2023-05-25T21:10:17.878Z,12.70
2023-05-25T21:12:45.999Z,12.60
2023-05-25T21:15:14.039Z,12.50
2023-05-25T21:17:41.960Z,12.50
2023-05-25T21:20:10.198Z,12.50
2023-05-25T21:22:38.590Z,12.40
2023-05-25T21:25:07.229Z,12.40
2023-05-25T21:27:36.480Z,12.30
2023-05-25T21:30:04.545Z,12.30
2023-05-25T21:32:32.654Z,12.20
2023-05-25T21:35:00.610Z,12.20
2023-05-25T21:37:28.936Z,12.10
2023-05-25T21:39:56.820Z,12.10
2023-05-25T21:42:24.927Z,12.10
2023-05-25T21:44:54.153Z,12.00
2023-05-25T21:47:22.256Z,12.00
2023-05-25T21:49:50.519Z,11.90
2023-05-25T21:52:18.808Z,11.90
2023-05-25T21:54:46.687Z,11.80
2023-05-25T21:57:14.583Z,11.80
2023-05-25T21:59:42.495Z,11.70
2023-05-25T22:02:12.139Z,11.70
2023-05-25T22:04:40.129Z,11.60
2023-05-25T22:07:08.285Z,11.60
2023-05-25T22:09:36.183Z,11.60
2023-05-25T22:12:04.175Z,11.50
2023-05-25T22:14:32.021Z,11.50
2023-05-25T22:16:59.988Z,11.40
2023-05-25T22:19:29.336Z,11.40
2023-05-25T22:21:57.214Z,11.30
2023-05-25T22:24:25.116Z,11.30
2023-05-25T22:26:53.181Z,11.30
2023-05-25T22:29:21.097Z,11.20
2023-05-25T22:31:50.677Z,11.20
2023-05-25T22:34:18.602Z,11.10
2023-05-25T22:36:47.807Z,11.10
2023-05-25T22:39:15.749Z,11.00
2023-05-25T22:41:43.676Z,11.00
2023-05-25T22:44:11.552Z,10.90
2023-05-25T22:46:39.505Z,10.90
2023-05-25T22:49:07.416Z,10.90
2023-05-25T22:51:36.627Z,10.90
2023-05-25T22:54:05.935Z,10.90
2023-05-25T22:56:34.067Z,10.90
2023-05-25T22:59:01.991Z,10.90
2023-05-25T23:01:29.918Z,10.90
2023-05-25T23:03:59.616Z,10.80
2023-05-25T23:06:27.656Z,10.70
2023-05-25T23:08:55.604Z,10.70
2023-05-25T23:11:25.435Z,10.60
2023-05-25T23:13:54.631Z,10.50
2023-05-25T23:16:22.723Z,10.50
2023-05-25T23:18:51.767Z,10.40
2023-05-25T23:21:19.835Z,10.40
2023-05-25T23:23:47.708Z,10.30
2023-05-25T23:26:15.682Z,10.30
2023-05-25T23:28:44.920Z,10.20
2023-05-25T23:31:12.850Z,10.20
2023-05-25T23:33:40.768Z,10.10
2023-05-25T23:36:08.893Z,10.10
2023-05-25T23:38:36.789Z,10.10
2023-05-25T23:41:04.807Z,10.10
2023-05-25T23:43:32.684Z,10.00
2023-05-25T23:46:02.423Z,10.00
2023-05-25T23:48:30.419Z,10.00
2023-05-25T23:50:58.268Z,9.90
2023-05-25T23:53:26.168Z,9.90
2023-05-25T23:55:54.112Z,9.90
2023-05-25T23:58:22.015Z,9.90
